Garden City, IA (50102)

7:42 PM CST on January 26, 2015 (GMT -0600)
Prairie Ridge | Change Station
CLOSE
Current Station
Personal Weather Station
Location: Story City, IA
Elevation: 1010 ft
Nearby Weather Stations

Elev 1010 ft 42.19 °N, 93.58 °W | Updated 6 minutes ago

Mostly Cloudy
Mostly Cloudy
43.2 °F
Feels Like 38 °F
N
8.3
Wind Variable Wind from North
Gusts 15.2 mph

Today
High -- | Low -- °F
--% Chance of Precip.
Yesterday
High -- | Low -- °F
Precip. -- in
7:32 AM 5:19 PM
Waxing Crescent, 49% visible
Pressure 29.91 in
Visibility 10.0 miles
Clouds Mostly Cloudy 3000 ft
Windchill 38 °F
Dew Point 34 °F
Humidity 71%
Rainfall 0.12 in
Snow Depth Not available.
UV 0 out of 12
Pollen .10 out of 12
Air Quality Not available.
Flu Activity Not available.
METAR KIFA 270135Z AUTO 31013KT 10SM BKN030 03/01 A2991 RMK AO2 T00320005

More Conditions Fewer Conditions

Pressure 29.91 in
Visibility 10.0 miles
Clouds Mostly Cloudy 3000 ft
Windchill 38 °F
Dew Point 34 °F
Humidity 71%
Rainfall 0.12 in
Snow Depth Not available.
UV 0 out of 12
Pollen .10 out of 12
Air Quality Not available.
Flu Activity Not available.
METAR KIFA 270135Z AUTO 31013KT 10SM BKN030 03/01 A2991 RMK AO2 T00320005

More Conditions Fewer Conditions

10-Day Weather Forecast

Almanac

Astronomy

Jan. 26, 2015 Rise Set
Actual Time
Civil Twilight
Nautical Twilight
Astronomical Twilight
Moon
Length of Visible Light
Length of Day
Tomorrow will be .
, % of the Moon is Illuminated

Today's Extremes

State Highs State Lows

Community

WunderPhotos

Upload Photos

1,790,451 photos uploaded!

WunderBlogs® & News

Nearby

Air Quality

  Air Quality AQ Index Pollutant
Not available.

Snow Depth

Station Depth Elevation

Earthquake Activity

City Distance Mag. Time & Date
Minimum magnitude displayed is 2.5.

Coastal Water Temperatures

Place Temperature

Nearby Weather Stations